Time;durP1;ratioP1;P1;durP2;ratioP2;P2;SDS_P1;SDS_P2;PMS_P1;PMS_P2;Temp;Humidity;BMP_temperature;BMP_pressure;BME280_temperature;BME280_humidity;BME280_pressure;Samples;Min_cycle;Max_cycle;Signal;HPM_P1;HPM_P2
2022/12/12 00:04:17;;;;;;;31.20;24.25;;;;;;;1.96;72.26;99561.22;10358489;28;20053;-48
2022/12/12 00:09:19;;;;;;;32.95;24.58;;;;;;;1.94;72.51;99568.34;10358844;28;20188;-49
2022/12/12 00:14:20;;;;;;;33.10;24.10;;;;;;;2.02;72.52;99566.13;10359344;28;20064;-49
2022/12/12 00:19:22;;;;;;;37.58;27.10;;;;;;;2.01;72.48;99574.97;10355648;28;20470;-48
2022/12/12 00:24:23;;;;;;;34.28;25.52;;;;;;;1.87;73.27;99569.63;10359406;28;20049;-49
2022/12/12 00:29:24;;;;;;;35.83;27.15;;;;;;;1.90;73.14;99566.81;10358438;28;20437;-48
2022/12/12 00:34:26;;;;;;;31.50;25.05;;;;;;;1.81;73.53;99568.16;10358242;28;20132;-48
2022/12/12 00:39:27;;;;;;;35.47;26.25;;;;;;;1.92;73.40;99567.56;10357524;28;20053;-48
2022/12/12 00:44:29;;;;;;;32.83;25.40;;;;;;;1.85;73.75;99569.69;10359778;28;20736;-49
2022/12/12 00:49:30;;;;;;;32.17;24.90;;;;;;;1.88;74.01;99568.69;10358631;28;20045;-48
2022/12/12 00:54:32;;;;;;;35.50;25.75;;;;;;;1.94;73.56;99573.59;10357823;28;20291;-47
2022/12/12 00:59:33;;;;;;;33.97;26.30;;;;;;;1.94;73.63;99570.97;10355748;28;20051;-48
2022/12/12 01:04:35;;;;;;;33.38;25.17;;;;;;;2.09;73.43;99583.25;10359160;28;20073;-50
2022/12/12 01:09:36;;;;;;;36.65;26.00;;;;;;;2.28;72.47;99582.19;10358037;28;20373;-48
2022/12/12 01:14:38;;;;;;;33.70;24.95;;;;;;;2.23;72.16;99573.75;10358168;28;20050;-49
2022/12/12 01:19:40;;;;;;;33.95;24.63;;;;;;;2.42;72.09;99584.88;10363966;28;20049;-49
2022/12/12 01:24:41;;;;;;;31.90;23.95;;;;;;;2.24;72.42;99586.78;10366155;28;20131;-49
2022/12/12 01:29:42;;;;;;;33.67;25.35;;;;;;;2.24;72.83;99592.03;10368870;28;20053;-49
2022/12/12 01:34:45;;;;;;;34.47;25.55;;;;;;;2.18;72.88;99584.50;10367784;28;20223;-53
2022/12/12 01:39:47;;;;;;;32.92;23.83;;;;;;;2.27;72.89;99583.16;10370223;28;20827;-49
2022/12/12 01:44:51;;;;;;;34.55;26.13;;;;;;;2.25;72.96;99587.63;10367996;28;20196;-56
2022/12/12 01:49:58;;;;;;;32.35;23.60;;;;;;;2.18;72.81;99591.50;10369880;28;20641;-48
2022/12/12 01:55:03;;;;;;;35.40;25.67;;;;;;;2.10;72.47;99590.19;10368824;28;20053;-49
2022/12/12 02:00:07;;;;;;;31.95;25.15;;;;;;;2.04;72.78;99590.53;10371340;28;20064;-49
2022/12/12 02:05:40;;;;;;;34.92;24.95;;;;;;;2.05;73.76;99588.75;10368604;28;20037;-49
2022/12/12 02:10:43;;;;;;;33.10;25.05;;;;;;;2.09;73.90;99601.63;10360249;28;20480;-49
2022/12/12 02:15:58;;;;;;;31.50;25.27;;;;;;;1.97;74.38;99601.44;10371697;28;20045;-53
2022/12/12 02:21:55;;;;;;;33.88;24.83;;;;;;;1.90;74.35;99593.06;10363104;28;20046;-49
2022/12/12 02:27:13;;;;;;;35.92;26.35;;;;;;;1.99;74.71;99592.56;10296129;28;20049;-47
2022/12/12 02:32:59;;;;;;;32.85;24.60;;;;;;;2.02;74.05;99600.25;10357904;28;20049;-47
2022/12/12 02:38:28;;;;;;;34.97;26.08;;;;;;;1.99;75.06;99596.97;10364268;28;20053;-49
2022/12/12 02:43:33;;;;;;;37.10;25.95;;;;;;;1.93;75.23;99598.16;10368152;28;20072;-47
2022/12/12 02:48:43;;;;;;;35.00;25.03;;;;;;;1.82;75.92;99606.63;10366122;28;20067;-48
2022/12/12 02:53:45;;;;;;;35.33;26.27;;;;;;;1.86;75.61;99607.28;10366013;28;20052;-48
2022/12/12 02:58:47;;;;;;;36.38;25.92;;;;;;;1.79;75.83;99605.91;10365454;28;20064;-47
2022/12/12 03:09:36;;;;;;;36.75;26.10;;;;;;;1.79;76.33;99612.03;10365285;28;20102;-47
2022/12/12 03:14:50;;;;;;;31.90;25.33;;;;;;;1.80;76.49;99608.47;10365549;28;20048;-47
2022/12/12 03:20:02;;;;;;;35.38;25.77;;;;;;;1.85;76.32;99616.09;10363634;28;20041;-47
2022/12/12 03:25:15;;;;;;;36.20;27.88;;;;;;;1.95;76.05;99606.78;10366245;28;20065;-48
2022/12/12 03:30:18;;;;;;;37.15;25.38;;;;;;;2.03;75.54;99604.59;10364180;28;20045;-48
2022/12/12 03:35:45;;;;;;;35.65;26.60;;;;;;;1.90;76.10;99614.91;10363378;28;20160;-49
2022/12/12 03:40:52;;;;;;;33.45;26.00;;;;;;;1.85;76.94;99608.25;10337889;28;20049;-48
2022/12/12 03:46:06;;;;;;;34.90;25.95;;;;;;;1.84;77.23;99614.41;10362201;28;20053;-46
2022/12/12 03:51:17;;;;;;;36.33;27.13;;;;;;;1.76;77.45;99612.19;10358755;28;20686;-46
2022/12/12 03:56:33;;;;;;;33.47;26.65;;;;;;;1.72;77.42;99611.50;10376525;28;20049;-48
2022/12/12 04:02:03;;;;;;;36.70;27.58;;;;;;;1.79;77.46;99624.28;10361342;28;20064;-48
2022/12/12 04:07:21;;;;;;;36.95;26.48;;;;;;;1.77;77.60;99624.38;10355137;28;20056;-48
2022/12/12 04:18:02;;;;;;;32.85;25.20;;;;;;;1.74;77.89;99622.78;10352036;28;20046;-48
2022/12/12 04:23:16;;;;;;;32.35;24.90;;;;;;;1.72;77.94;99624.63;10363641;28;20549;-48
2022/12/12 04:28:18;;;;;;;33.10;25.17;;;;;;;1.69;78.07;99629.19;10363810;28;20045;-48
2022/12/12 04:33:23;;;;;;;33.28;26.42;;;;;;;1.66;78.27;99635.44;10362115;28;20049;-47
2022/12/12 04:38:24;;;;;;;27.23;20.20;;;;;;;1.58;78.54;99643.72;10361890;28;20048;-47
2022/12/12 04:43:36;;;;;;;34.90;25.55;;;;;;;1.62;78.71;99647.03;10363025;28;20284;-48
2022/12/12 04:48:51;;;;;;;34.38;26.52;;;;;;;1.62;78.83;99651.44;10360757;28;20045;-49
2022/12/12 04:54:25;;;;;;;35.42;26.40;;;;;;;1.67;78.89;99649.44;10359738;28;20089;-49
2022/12/12 04:59:27;;;;;;;34.83;26.17;;;;;;;1.68;78.94;99649.34;10358125;28;20111;-48
2022/12/12 05:04:37;;;;;;;37.33;26.88;;;;;;;1.65;78.78;99652.16;10361185;28;20045;-48
2022/12/12 05:09:39;;;;;;;33.58;25.60;;;;;;;1.61;79.39;99650.59;10348327;28;20051;-48
2022/12/12 05:14:41;;;;;;;33.97;26.60;;;;;;;1.63;79.29;99648.72;10358501;28;20053;-49
2022/12/12 05:19:42;;;;;;;35.38;26.50;;;;;;;1.68;79.70;99651.97;10341421;28;20140;-48
2022/12/12 05:24:44;;;;;;;35.78;26.77;;;;;;;1.64;79.29;99654.84;10361436;28;20413;-49
2022/12/12 05:29:45;;;;;;;33.15;24.63;;;;;;;1.61;79.41;99666.34;10361514;28;20053;-48
2022/12/12 05:34:46;;;;;;;33.58;26.42;;;;;;;1.52;79.72;99661.59;10357678;28;20046;-48
2022/12/12 05:39:48;;;;;;;37.20;26.92;;;;;;;1.56;79.74;99668.34;10357328;28;20057;-48
2022/12/12 05:44:49;;;;;;;37.40;27.30;;;;;;;1.55;79.68;99664.06;10358927;28;20529;-49
2022/12/12 05:49:51;;;;;;;35.80;26.85;;;;;;;1.51;79.22;99663.34;10339265;28;20694;-49
2022/12/12 05:54:52;;;;;;;33.33;26.83;;;;;;;1.57;79.39;99670.06;10330206;28;20056;-48
2022/12/12 05:59:54;;;;;;;34.97;26.80;;;;;;;1.57;80.07;99677.91;10336849;28;20057;-51
2022/12/12 06:04:55;;;;;;;37.95;26.85;;;;;;;1.56;79.97;99669.22;10337001;28;20110;-49
2022/12/12 06:09:57;;;;;;;34.60;27.73;;;;;;;1.66;79.92;99673.97;10336883;28;20053;-47
2022/12/12 06:14:58;;;;;;;35.28;24.75;;;;;;;1.77;79.43;99679.47;10342712;28;20073;-46
2022/12/12 06:20:00;;;;;;;38.63;27.52;;;;;;;1.93;78.43;99676.91;10330675;28;20052;-46
2022/12/12 06:25:02;;;;;;;38.40;27.75;;;;;;;1.84;78.63;99674.78;10334419;28;20616;-48
2022/12/12 06:30:04;;;;;;;37.47;27.55;;;;;;;1.74;78.98;99682.28;10339120;28;20529;-48
2022/12/12 06:35:06;;;;;;;38.65;27.58;;;;;;;1.59;79.60;99683.94;10340000;28;20068;-47
2022/12/12 06:40:08;;;;;;;37.45;27.08;;;;;;;1.63;79.90;99690.72;10334953;28;20053;-48
2022/12/12 06:45:09;;;;;;;41.85;28.63;;;;;;;1.68;79.48;99688.72;10335209;28;20625;-47
2022/12/12 06:50:12;;;;;;;41.25;27.80;;;;;;;1.71;79.72;99692.94;10339692;28;20132;-47
2022/12/12 06:55:13;;;;;;;36.70;27.73;;;;;;;1.76;79.50;99704.06;10336609;28;20053;-48
2022/12/12 07:00:15;;;;;;;37.30;27.70;;;;;;;1.68;79.68;99704.47;10341006;28;20057;-47
2022/12/12 07:05:17;;;;;;;40.05;27.75;;;;;;;1.66;79.68;99714.16;10337482;28;20058;-48
2022/12/12 07:10:18;;;;;;;39.83;27.30;;;;;;;1.71;79.51;99713.94;10340847;28;20068;-49
2022/12/12 07:15:22;;;;;;;34.10;27.15;;;;;;;1.74;79.42;99719.00;10341661;28;20409;-48
2022/12/12 07:20:24;;;;;;;36.78;25.73;;;;;;;1.68;79.23;99725.44;10338716;28;20064;-50
2022/12/12 07:25:25;;;;;;;35.03;26.00;;;;;;;1.70;79.47;99728.81;10333704;28;21232;-51
2022/12/12 07:30:26;;;;;;;35.58;26.92;;;;;;;1.75;78.72;99736.47;10339410;28;20690;-49
2022/12/12 07:35:28;;;;;;;36.33;26.83;;;;;;;1.67;79.49;99736.03;10335124;28;20053;-47
2022/12/12 07:40:30;;;;;;;36.20;26.17;;;;;;;1.63;80.09;99735.31;10336881;28;20609;-47
2022/12/12 07:45:31;;;;;;;35.13;25.92;;;;;;;1.60;79.88;99743.34;10341853;28;20057;-46
2022/12/12 07:50:33;;;;;;;37.58;26.50;;;;;;;1.63;80.18;99744.97;10336069;28;20082;-48
2022/12/12 07:55:34;;;;;;;35.15;26.38;;;;;;;1.63;79.66;99753.69;10331023;28;20150;-47
2022/12/12 08:00:35;;;;;;;37.55;27.25;;;;;;;1.69;79.73;99750.75;10334519;28;20055;-48
2022/12/12 08:05:41;;;;;;;35.83;26.90;;;;;;;1.69;79.69;99750.75;10335115;28;20052;-48
2022/12/12 08:10:42;;;;;;;37.67;27.45;;;;;;;1.69;80.17;99763.84;10337921;28;20802;-47
2022/12/12 08:15:44;;;;;;;39.28;27.75;;;;;;;1.72;80.25;99773.34;10335720;28;20046;-48
2022/12/12 08:20:45;;;;;;;39.03;28.67;;;;;;;1.75;80.38;99783.69;10340660;28;20054;-48
2022/12/12 08:25:47;;;;;;;41.25;27.10;;;;;;;1.71;80.67;99783.00;10335049;28;20158;-48
2022/12/12 08:30:50;;;;;;;40.60;28.63;;;;;;;1.91;79.97;99778.50;10332360;28;20102;-48
2022/12/12 08:35:51;;;;;;;37.88;28.17;;;;;;;1.83;79.72;99780.66;10336812;28;20057;-47
2022/12/12 08:40:52;;;;;;;37.78;28.00;;;;;;;1.80;80.07;99788.72;10334257;28;20045;-48
2022/12/12 08:46:01;;;;;;;40.25;29.25;;;;;;;1.84;79.53;99787.63;10334396;28;20172;-48
2022/12/12 08:51:03;;;;;;;37.33;28.38;;;;;;;1.93;80.14;99789.78;10333723;28;20045;-49
2022/12/12 08:56:05;;;;;;;39.75;29.20;;;;;;;1.95;79.35;99798.41;10330015;28;20049;-48
2022/12/12 09:01:16;;;;;;;39.30;30.38;;;;;;;1.94;79.14;99796.72;10331552;28;20131;-47
2022/12/12 09:06:18;;;;;;;38.47;30.23;;;;;;;1.94;78.42;99794.09;10329884;28;20076;-47
2022/12/12 09:11:22;;;;;;;41.38;29.98;;;;;;;1.81;78.64;99790.41;10327212;28;20068;-47
2022/12/12 09:16:25;;;;;;;41.05;28.48;;;;;;;1.85;78.26;99789.34;10327795;28;20058;-47
2022/12/12 09:21:26;;;;;;;43.67;30.60;;;;;;;2.02;77.79;99806.81;10333327;28;20116;-47
2022/12/12 09:26:28;;;;;;;42.42;30.85;;;;;;;2.18;77.32;99809.47;10333702;28;20403;-48
2022/12/12 09:31:29;;;;;;;43.30;29.70;;;;;;;2.15;76.97;99812.25;10331959;28;20625;-48
2022/12/12 09:36:31;;;;;;;44.03;30.85;;;;;;;2.15;77.34;99813.13;10329353;28;20191;-48
2022/12/12 09:41:32;;;;;;;42.38;30.08;;;;;;;2.20;77.11;99818.97;10335563;28;20724;-46
2022/12/12 09:46:42;;;;;;;42.78;30.95;;;;;;;2.49;76.28;99827.06;10340118;28;20091;-47
2022/12/12 09:51:48;;;;;;;39.20;28.27;;;;;;;2.92;73.63;99813.38;10338442;28;20057;-47
2022/12/12 09:57:11;;;;;;;36.63;27.38;;;;;;;3.22;72.47;99823.13;10334947;28;20155;-47
2022/12/12 10:02:29;;;;;;;39.20;27.85;;;;;;;3.27;72.25;99835.06;10340264;28;20704;-48
2022/12/12 10:07:41;;;;;;;38.40;28.17;;;;;;;2.99;74.06;99817.38;10339250;28;21194;-46
2022/12/12 10:12:44;;;;;;;41.50;31.27;;;;;;;2.85;74.94;99812.03;10339361;28;20053;-47
2022/12/12 10:17:47;;;;;;;44.88;32.92;;;;;;;2.89;74.86;99811.75;10336779;28;20200;-47
2022/12/12 10:22:55;;;;;;;37.90;27.80;;;;;;;3.27;72.49;99818.44;10336045;28;20041;-47
2022/12/12 10:28:08;;;;;;;41.30;28.98;;;;;;;3.49;71.38;99812.78;10340624;28;20354;-48
2022/12/12 10:33:36;;;;;;;39.30;27.60;;;;;;;3.59;70.98;99806.06;10338763;28;20065;-48
2022/12/12 10:39:00;;;;;;;36.72;26.75;;;;;;;3.50;71.65;99814.50;10337142;28;20054;-48
2022/12/12 10:44:11;;;;;;;32.70;25.15;;;;;;;3.36;70.50;99810.00;10339419;28;20436;-47
2022/12/12 10:49:19;;;;;;;32.70;26.08;;;;;;;3.28;72.06;99814.88;10337450;28;20049;-47
2022/12/12 10:54:24;;;;;;;34.08;27.35;;;;;;;3.33;71.31;99812.81;10330424;28;20060;-47
2022/12/12 10:59:25;;;;;;;35.15;26.48;;;;;;;3.14;71.27;99813.88;10338189;28;20567;-48
2022/12/12 11:04:30;;;;;;;37.95;27.50;;;;;;;3.03;72.25;99816.25;10339081;28;20193;-48
2022/12/12 11:09:31;;;;;;;37.13;28.13;;;;;;;2.99;73.55;99812.13;10338698;28;20551;-47
2022/12/12 11:14:38;;;;;;;32.85;28.25;;;;;;;2.93;73.74;99825.59;10339665;28;20157;-48
2022/12/12 11:19:44;;;;;;;40.38;29.83;;;;;;;2.88;73.52;99814.47;10333011;28;20782;-48
2022/12/12 11:24:48;;;;;;;37.53;29.13;;;;;;;2.83;72.46;99809.47;10334052;28;20049;-48
2022/12/12 11:29:53;;;;;;;37.50;27.40;;;;;;;2.94;72.59;99807.13;10338451;28;20196;-48
2022/12/12 11:34:58;;;;;;;37.58;29.15;;;;;;;2.90;72.29;99815.22;10338024;28;20056;-47
2022/12/12 11:40:00;;;;;;;39.67;28.98;;;;;;;2.79;73.01;99797.44;10331844;28;20128;-48
2022/12/12 11:45:07;;;;;;;39.00;27.50;;;;;;;2.67;73.15;99806.84;10335670;28;20554;-49
2022/12/12 11:50:28;;;;;;;36.45;27.00;;;;;;;2.50;74.26;99804.31;10335938;28;21545;-48
2022/12/12 11:55:32;;;;;;;39.00;29.17;;;;;;;2.74;73.90;99799.47;10334840;28;20206;-48
2022/12/12 12:00:44;;;;;;;39.17;29.40;;;;;;;2.64;73.75;99793.88;10333640;28;20060;-48
2022/12/12 12:05:52;;;;;;;41.22;30.13;;;;;;;2.62;73.41;99793.94;10334287;28;20122;-47
2022/12/12 12:11:05;;;;;;;39.25;30.55;;;;;;;2.67;73.51;99788.44;10334439;28;20057;-48
2022/12/12 12:16:22;;;;;;;39.70;28.08;;;;;;;2.50;73.88;99785.91;10349618;28;20134;-47
2022/12/12 12:21:56;;;;;;;41.63;28.73;;;;;;;2.40;74.07;99791.66;10333247;28;20053;-47
2022/12/12 12:27:17;;;;;;;40.15;28.88;;;;;;;2.56;73.56;99791.66;10335645;28;20061;-47
2022/12/12 12:32:30;;;;;;;41.03;28.95;;;;;;;2.62;73.05;99785.22;10327754;28;20044;-47
2022/12/12 12:37:50;;;;;;;37.25;26.30;;;;;;;2.50;72.89;99780.66;10338588;28;20484;-47
2022/12/12 12:43:02;;;;;;;37.15;25.27;;;;;;;2.42;72.35;99778.44;10333020;28;20064;-48
2022/12/12 12:48:18;;;;;;;32.47;22.83;;;;;;;2.52;71.83;99789.28;10332949;28;20195;-47
2022/12/12 12:53:34;;;;;;;32.10;22.88;;;;;;;2.40;71.72;99782.91;10334536;28;20068;-48
2022/12/12 12:58:44;;;;;;;32.15;23.75;;;;;;;2.48;71.68;99772.84;10333866;28;20056;-47
2022/12/12 13:03:52;;;;;;;30.92;22.50;;;;;;;2.45;70.94;99773.88;10335386;28;20080;-47
2022/12/12 13:09:04;;;;;;;28.08;22.13;;;;;;;2.39;70.89;99768.94;10335817;28;20760;-47
2022/12/12 13:14:30;;;;;;;31.63;23.33;;;;;;;2.43;70.94;99780.13;10337483;28;20136;-48
2022/12/12 13:19:52;;;;;;;;;;;;;;;2.26;70.44;99770.53;10327220;28;20045;-48
2022/12/12 13:25:16;;;;;;;29.40;23.85;;;;;;;2.21;71.50;99773.41;10337464;28;19929;-46
2022/12/12 13:30:24;;;;;;;32.35;23.52;;;;;;;2.23;71.75;99781.22;10338291;28;20061;-47
2022/12/12 13:35:30;;;;;;;33.58;24.17;;;;;;;2.33;71.37;99779.78;10337356;28;20053;-47
2022/12/12 13:40:41;;;;;;;32.55;25.83;;;;;;;2.24;71.52;99775.03;10336255;28;20050;-47
2022/12/12 13:45:44;;;;;;;33.00;23.23;;;;;;;2.00;71.96;99743.03;10330986;28;20330;-46
2022/12/12 13:50:45;;;;;;;32.92;24.25;;;;;;;2.24;72.28;99775.88;10333134;28;20069;-47
2022/12/12 13:55:47;;;;;;;33.58;22.23;;;;;;;2.20;71.46;99776.13;10333853;28;20052;-47
2022/12/12 14:01:27;;;;;;;27.55;20.63;;;;;;;2.26;70.83;99778.41;10347620;28;20053;-49
2022/12/12 14:06:29;;;;;;;26.60;19.95;;;;;;;2.12;71.08;99777.38;10328448;28;20061;-46
2022/12/12 14:11:36;;;;;;;32.65;21.70;;;;;;;2.14;70.81;99772.03;10333473;28;20192;-48
2022/12/12 14:16:37;;;;;;;30.63;22.10;;;;;;;2.12;71.00;99776.53;10331591;28;20049;-47
2022/12/12 14:21:46;;;;;;;30.17;21.17;;;;;;;2.10;71.13;99774.00;10331405;28;20049;-46
2022/12/12 14:26:48;;;;;;;28.67;21.08;;;;;;;2.09;70.59;99777.53;10330540;28;20053;-47
2022/12/12 14:32:12;;;;;;;28.85;21.50;;;;;;;2.23;70.90;99781.22;10331405;28;20641;-46
2022/12/12 14:37:36;;;;;;;30.00;21.23;;;;;;;2.15;70.69;99776.38;10327812;28;20562;-48
2022/12/12 14:42:50;;;;;;;29.23;20.38;;;;;;;2.12;71.42;99772.13;10328709;28;20579;-48
2022/12/12 14:48:28;;;;;;;29.33;21.27;;;;;;;1.94;70.95;99752.94;10325606;28;20049;-47
2022/12/12 14:53:35;;;;;;;31.27;22.70;;;;;;;2.08;71.09;99775.00;10329625;28;20053;-47
2022/12/12 14:58:41;;;;;;;28.98;21.48;;;;;;;2.00;71.19;99778.03;10329791;28;20116;-46
2022/12/12 15:03:47;;;;;;;28.40;21.08;;;;;;;2.04;71.45;99766.44;10328761;28;20057;-46
2022/12/12 15:08:51;;;;;;;28.25;21.85;;;;;;;2.10;71.06;99771.38;10323532;28;20053;-46
2022/12/12 15:13:57;;;;;;;28.25;22.73;;;;;;;2.05;71.04;99786.50;10327856;28;20191;-49
2022/12/12 15:19:01;;;;;;;32.72;21.90;;;;;;;2.00;71.06;99777.16;10330191;28;20757;-48
2022/12/12 15:24:03;;;;;;;29.95;22.15;;;;;;;1.99;71.13;99784.19;10333384;28;20151;-48
2022/12/12 15:29:04;;;;;;;29.40;21.77;;;;;;;1.89;70.83;99788.22;10333096;28;20053;-48
2022/12/12 15:34:44;;;;;;;28.30;21.50;;;;;;;1.96;71.15;99781.72;10336300;28;20449;-47
2022/12/12 15:40:05;;;;;;;32.17;24.25;;;;;;;1.83;71.23;99762.31;10334134;28;20479;-48
2022/12/12 15:45:21;;;;;;;31.65;24.83;;;;;;;1.88;71.29;99794.41;10333408;28;20060;-47
2022/12/12 15:50:27;;;;;;;33.25;23.90;;;;;;;1.76;71.75;99788.88;10332536;28;20759;-47
2022/12/12 15:55:28;;;;;;;30.40;21.90;;;;;;;1.90;71.10;99813.56;10333682;28;20062;-47
2022/12/12 16:00:37;;;;;;;29.13;21.00;;;;;;;1.93;71.15;99808.97;10327121;28;20053;-52
2022/12/12 16:05:38;;;;;;;30.83;22.48;;;;;;;1.93;71.14;99797.66;10325917;28;20253;-47
2022/12/12 16:10:51;;;;;;;25.10;19.48;;;;;;;1.86;71.18;99801.50;10330297;28;20060;-48
2022/12/12 16:15:53;;;;;;;27.23;21.83;;;;;;;1.71;71.22;99793.50;10336040;28;20502;-46
2022/12/12 16:20:56;;;;;;;32.08;21.75;;;;;;;1.71;71.82;99797.91;10329966;28;20061;-47
2022/12/12 16:25:58;;;;;;;26.65;20.33;;;;;;;1.75;71.49;99810.78;10325031;28;20884;-47
2022/12/12 16:31:05;;;;;;;31.95;23.05;;;;;;;1.70;71.50;99802.31;10330428;28;20267;-47
2022/12/12 16:36:11;;;;;;;26.55;20.35;;;;;;;1.64;71.33;99799.16;10331910;28;20050;-47
2022/12/12 16:41:16;;;;;;;28.73;19.95;;;;;;;1.61;71.19;99797.53;10331947;28;20049;-48
2022/12/12 16:46:22;;;;;;;24.77;19.50;;;;;;;1.49;71.06;99803.41;10333130;28;20045;-47
2022/12/12 16:51:28;;;;;;;23.85;18.85;;;;;;;1.42;70.92;99810.72;10333310;28;20187;-48
2022/12/12 16:56:29;;;;;;;22.50;18.48;;;;;;;1.36;70.24;99801.38;10333808;28;20068;-48
2022/12/12 17:01:31;;;;;;;25.65;19.02;;;;;;;1.39;69.91;99803.00;10333356;28;20448;-45
2022/12/12 17:06:38;;;;;;;24.45;19.52;;;;;;;1.39;69.32;99809.06;10332014;28;20054;-48
2022/12/12 17:11:40;;;;;;;25.73;18.90;;;;;;;1.26;69.79;99815.84;10335729;28;20049;-46
2022/12/12 17:16:41;;;;;;;25.55;20.08;;;;;;;1.24;70.02;99815.09;10337252;28;20049;-50
2022/12/12 17:21:43;;;;;;;28.00;21.17;;;;;;;1.24;70.28;99820.34;10335712;28;20195;-49
2022/12/12 17:26:45;;;;;;;28.33;21.10;;;;;;;1.30;69.85;99820.03;10333814;28;20061;-50
2022/12/12 17:31:46;;;;;;;25.73;19.02;;;;;;;1.23;69.56;99822.13;10333701;28;20072;-48
2022/12/12 17:36:48;;;;;;;25.23;19.45;;;;;;;1.21;69.31;99821.31;10333818;28;20171;-48
2022/12/12 17:41:50;;;;;;;29.83;20.08;;;;;;;1.11;69.90;99821.84;10331075;28;20559;-49
2022/12/12 17:46:52;;;;;;;28.33;21.27;;;;;;;0.95;70.50;99819.97;10331673;28;20054;-48
2022/12/12 17:51:53;;;;;;;27.42;22.00;;;;;;;1.15;71.36;99826.03;10331974;28;20057;-47
2022/12/12 17:56:55;;;;;;;30.48;22.92;;;;;;;1.17;70.07;99818.94;10333415;28;20049;-52
2022/12/12 18:01:56;;;;;;;30.70;21.70;;;;;;;1.10;69.50;99817.53;10334509;28;20057;-46
2022/12/12 18:06:58;;;;;;;27.45;21.95;;;;;;;1.08;69.42;99801.03;10339345;28;22695;-46
2022/12/12 18:12:00;;;;;;;28.35;21.75;;;;;;;1.07;69.61;99813.28;10337688;28;20064;-46
2022/12/12 18:17:02;;;;;;;29.80;22.42;;;;;;;0.92;70.12;99814.88;10336967;28;20057;-46
2022/12/12 18:22:03;;;;;;;30.13;22.58;;;;;;;0.79;70.23;99813.75;10339261;28;21090;-46
2022/12/12 18:27:05;;;;;;;32.55;24.23;;;;;;;0.56;70.79;99807.81;10337490;28;20057;-46
2022/12/12 18:32:06;;;;;;;31.55;23.65;;;;;;;0.42;71.46;99818.06;10336343;28;20061;-46
2022/12/12 18:37:08;;;;;;;28.55;22.23;;;;;;;0.39;71.79;99824.31;10336481;28;20050;-46
2022/12/12 18:42:10;;;;;;;30.67;22.52;;;;;;;0.23;72.25;99832.00;10337322;28;20045;-46
2022/12/12 18:47:12;;;;;;;27.70;21.02;;;;;;;0.17;72.15;99832.28;10338899;28;20058;-46
2022/12/12 18:52:13;;;;;;;32.30;22.35;;;;;;;0.10;72.46;99836.06;10336975;28;20061;-46
2022/12/12 18:57:15;;;;;;;30.25;22.98;;;;;;;-0.01;72.78;99833.94;10341459;28;20057;-46
2022/12/12 19:02:16;;;;;;;30.60;22.23;;;;;;;-0.07;73.12;99840.28;10340126;28;20045;-45
2022/12/12 19:07:18;;;;;;;33.92;24.95;;;;;;;-0.15;73.57;99828.44;10335626;28;20049;-46
2022/12/12 19:12:19;;;;;;;31.42;21.88;;;;;;;-0.13;73.68;99840.53;10341018;28;20446;-45
2022/12/12 19:17:20;;;;;;;33.17;24.17;;;;;;;0.05;73.09;99845.91;10334195;28;20569;-46
2022/12/12 19:22:27;;;;;;;31.40;23.95;;;;;;;0.09;72.66;99844.81;10334472;28;20049;-46
2022/12/12 19:27:48;;;;;;;29.05;23.23;;;;;;;0.17;72.59;99838.34;10335843;28;20079;-46
2022/12/12 19:32:49;;;;;;;31.92;22.58;;;;;;;0.11;72.24;99837.78;10337570;28;20049;-47
2022/12/12 19:37:51;;;;;;;30.58;22.90;;;;;;;-0.07;72.89;99832.41;10334837;28;20041;-46
2022/12/12 19:42:52;;;;;;;33.17;23.38;;;;;;;-0.18;73.26;99834.66;10335937;28;20152;-47
2022/12/12 19:47:54;;;;;;;32.28;23.05;;;;;;;-0.19;73.27;99830.34;10336036;28;20064;-47
2022/12/12 19:52:57;;;;;;;31.05;22.73;;;;;;;-0.28;73.12;99822.88;10336712;28;20137;-48
2022/12/12 19:58:01;;;;;;;30.63;22.58;;;;;;;-0.31;73.43;99830.88;10335385;28;20731;-46
2022/12/12 20:03:03;;;;;;;29.60;23.42;;;;;;;-0.33;73.24;99835.28;10340115;28;21339;-53
2022/12/12 20:08:04;;;;;;;31.55;22.33;;;;;;;-0.26;72.87;99839.34;10352147;28;20057;-47
2022/12/12 20:13:06;;;;;;;35.17;24.95;;;;;;;-0.21;73.09;99837.38;10329731;28;20130;-46
2022/12/12 20:18:09;;;;;;;30.05;22.58;;;;;;;-0.21;73.20;99832.16;10338791;28;20980;-48
2022/12/12 20:23:16;;;;;;;32.40;22.75;;;;;;;-0.30;72.94;99832.53;10330774;28;20117;-49
2022/12/12 20:28:17;;;;;;;34.35;23.02;;;;;;;-0.31;72.95;99838.72;10331531;28;21234;-46
2022/12/12 20:33:19;;;;;;;30.55;21.38;;;;;;;-0.33;72.66;99843.13;10334543;28;20226;-46
2022/12/12 20:38:22;;;;;;;30.00;22.65;;;;;;;-0.36;72.20;99839.75;10336230;28;21944;-47
2022/12/12 20:43:24;;;;;;;32.60;22.67;;;;;;;-0.45;72.30;99844.50;10332619;28;20056;-48
2022/12/12 20:48:25;;;;;;;30.73;23.17;;;;;;;-0.60;72.22;99840.75;10326840;28;20053;-48
2022/12/12 20:53:28;;;;;;;30.35;23.45;;;;;;;-0.61;72.71;99847.75;10327374;28;20061;-46
2022/12/12 20:58:37;;;;;;;29.98;21.90;;;;;;;-0.48;72.32;99840.25;10324574;28;20133;-47
2022/12/12 21:03:40;;;;;;;31.50;20.83;;;;;;;-0.64;72.17;99834.81;10345773;28;20064;-48
2022/12/12 21:08:41;;;;;;;28.48;21.23;;;;;;;-0.68;72.34;99837.63;10329555;28;20046;-47
2022/12/12 21:13:43;;;;;;;31.33;21.40;;;;;;;-0.73;72.77;99835.19;10330019;28;20855;-48
2022/12/12 21:18:46;;;;;;;32.10;22.98;;;;;;;-0.81;72.58;99830.28;10330180;28;20560;-48
2022/12/12 21:23:47;;;;;;;30.65;22.67;;;;;;;-0.66;73.03;99827.94;10333999;28;20049;-47
2022/12/12 21:28:50;;;;;;;29.10;21.25;;;;;;;-0.70;72.04;99829.84;10349697;28;20233;-47
2022/12/12 21:33:52;;;;;;;29.95;21.70;;;;;;;-0.78;71.56;99830.16;10363693;28;20053;-47
2022/12/12 21:38:55;;;;;;;30.70;21.27;;;;;;;-0.88;72.34;99834.03;10373278;28;20160;-47
2022/12/12 21:43:58;;;;;;;30.65;21.10;;;;;;;-0.99;72.95;99826.63;10374674;28;20045;-49
2022/12/12 21:54:20;;;;;;;33.55;22.02;;;;;;;-1.01;73.15;99835.44;10372596;28;20049;-47
2022/12/12 21:59:22;;;;;;;28.83;21.38;;;;;;;-1.10;73.33;99827.03;10369624;28;20045;-47
2022/12/12 22:04:24;;;;;;;34.00;22.05;;;;;;;-1.19;73.79;99824.78;10371300;28;20045;-47
2022/12/12 22:09:25;;;;;;;33.40;24.10;;;;;;;-1.17;73.94;99825.59;10373572;28;20569;-47
2022/12/12 22:14:27;;;;;;;30.15;22.13;;;;;;;-0.96;72.98;99823.03;10372325;28;20045;-48
2022/12/12 22:19:28;;;;;;;31.58;22.50;;;;;;;-1.27;72.83;99805.97;10373765;28;20063;-47
2022/12/12 22:24:30;;;;;;;29.77;21.88;;;;;;;-1.30;73.33;99819.13;10372290;28;20100;-46
2022/12/12 22:29:31;;;;;;;32.63;22.17;;;;;;;-1.38;73.57;99815.94;10372600;28;20045;-46
2022/12/12 22:34:33;;;;;;;34.00;21.70;;;;;;;-1.49;73.64;99814.59;10368282;28;20064;-48
2022/12/12 22:39:34;;;;;;;29.90;20.92;;;;;;;-1.56;73.58;99815.75;10372575;28;20442;-47
2022/12/12 22:44:35;;;;;;;30.48;20.10;;;;;;;-1.60;73.83;99816.78;10372054;28;20140;-46
2022/12/12 22:49:37;;;;;;;33.22;21.67;;;;;;;-1.60;74.25;99811.56;10372876;28;20053;-47
2022/12/12 22:54:38;;;;;;;30.90;22.02;;;;;;;-1.40;73.81;99802.97;10371269;28;20049;-46
2022/12/12 22:59:39;;;;;;;29.77;21.40;;;;;;;-1.48;73.15;99813.69;10372548;28;20045;-46
2022/12/12 23:04:41;;;;;;;26.60;19.85;;;;;;;-1.51;72.95;99816.44;10369763;28;20053;-47
2022/12/12 23:09:51;;;;;;;33.40;21.33;;;;;;;-1.62;72.46;99808.16;10368724;28;20741;-46
2022/12/12 23:14:52;;;;;;;32.53;22.40;;;;;;;-1.67;73.53;99805.69;10368380;28;20050;-48
2022/12/12 23:19:54;;;;;;;33.33;22.30;;;;;;;-1.63;73.19;99796.84;10366071;28;20055;-48
2022/12/12 23:24:55;;;;;;;28.08;20.48;;;;;;;-1.72;73.35;99801.59;10367187;28;20473;-46
2022/12/12 23:29:56;;;;;;;32.22;21.67;;;;;;;-1.76;73.55;99800.81;10366699;28;20845;-46
2022/12/12 23:34:58;;;;;;;30.63;21.02;;;;;;;-1.63;73.09;99801.22;10365734;28;20049;-47
2022/12/12 23:40:00;;;;;;;29.40;21.10;;;;;;;-1.45;72.56;99799.69;10365385;28;20049;-48
2022/12/12 23:45:02;;;;;;;29.35;21.15;;;;;;;-1.51;71.87;99802.53;10365474;28;20052;-47